This is the latest recevied weather packets stored in our database for station/object ON7LDS-13. If no packets are shown the sender has not sent any weather packets the latest 10 day(s).
| Time | Temp. | Humidity | Pressure | Rain* | Wind** | Luminosity | Snow |
|---|---|---|---|---|---|---|---|
| 1778096133 | 11.11° C | 24% | 1016 hPa | - | - | - | - |
| 1778094935 | 11.11° C | 26% | 1015.8 hPa | - | - | - | - |
| 1778094334 | 11.67° C | 31% | 1015.7 hPa | - | - | - | - |
| 1778093733 | 11.67° C | 34% | 1015.6 hPa | - | - | - | - |
| 1778091993 | 12.22° C | 42% | 1015.3 hPa | - | - | - | - |
| 1778086533 | 13.89° C | 56% | 1014.3 hPa | - | - | - | - |
| 1778083593 | 15° C | 57% | 1013.8 hPa | - | - | - | - |
| 1778079931 | 15.56° C | 56% | 1013.6 hPa | - | - | - | - |
| 1778078761 | 15.56° C | 57% | 1013.6 hPa | - | - | - | - |
| 1778078131 | 16.11° C | 56% | 1013.6 hPa | - | - | - | - |
| 1778072730 | 15.56° C | 54% | 1013.3 hPa | - | - | - | - |
| 1778070360 | 15.56° C | 28% | 1013.2 hPa | - | - | - | - |
| 1778061330 | 12.78° C | 1% | 1013 hPa | - | - | - | - |
| 1778055929 | 11.11° C | 1% | 1012.6 hPa | - | - | - | - |
| 1778054728 | 10.56° C | 1% | 1012.6 hPa | - | - | - | - |
| 1778047557 | 9.44° C | 1% | 1012 hPa | - | - | - | - |
| 1778041586 | 9.44° C | 1% | 1011.9 hPa | - | - | - | - |
| 1778040386 | 9.44° C | 1% | 1011.9 hPa | - | - | - | - |
| 1778036125 | 9.44° C | 1% | 1012.3 hPa | - | - | - | - |
| 1778027786 | 10° C | 1% | 1012.8 hPa | - | - | - | - |
| 1778027124 | 10° C | 1% | 1012.9 hPa | - | - | - | - |
| 1778021143 | 10.56° C | 1% | 1013.4 hPa | - | - | - | - |
| 1778020525 | 10.56° C | 1% | 1013.4 hPa | - | - | - | - |
| 1778019925 | 10.56° C | 1% | 1013.4 hPa | - | - | - | - |
| 1778018203 | 10.56° C | 1% | 1013.7 hPa | - | - | - | - |
* Rain since midnight (hover to see other rain measurements)
** Current wind speed in m/s (hover to see current wind gust speed)